Time;durP1;ratioP1;P1;durP2;ratioP2;P2;SDS_P1;SDS_P2;PMS_P1;PMS_P2;Temp;Humidity;BMP_temperature;BMP_pressure;BME280_temperature;BME280_humidity;BME280_pressure;Samples;Min_cycle;Max_cycle;Signal;HPM_P1;HPM_P2
2020/12/02 00:01:24;;;;;;;24.85;11.80;;;3.30;98.40;;;;;;5030487;28;20197;-75
2020/12/02 00:04:06;;;;;;;31.58;13.98;;;3.20;98.30;;;;;;5031222;28;20218;-75
2020/12/02 00:06:33;;;;;;;30.42;14.30;;;3.10;98.30;;;;;;5031812;28;20181;-74
2020/12/02 00:09:06;;;;;;;24.00;13.00;;;3.10;98.40;;;;;;5031532;28;20204;-74
2020/12/02 00:11:32;;;;;;;30.90;14.25;;;3.10;98.50;;;;;;5031251;28;20539;-75
2020/12/02 00:14:03;;;;;;;26.07;12.20;;;3.20;98.70;;;;;;5031074;28;20189;-74
2020/12/02 00:16:31;;;;;;;31.58;13.55;;;3.10;98.70;;;;;;5030706;28;20416;-74
2020/12/02 00:18:58;;;;;;;26.05;12.23;;;3.20;98.60;;;;;;5029745;28;20213;-75
2020/12/02 00:21:26;;;;;;;26.38;13.10;;;3.20;98.60;;;;;;5029703;28;20694;-74
2020/12/02 00:23:53;;;;;;;35.28;13.55;;;3.20;98.60;;;;;;5030975;28;20219;-73
2020/12/02 00:26:19;;;;;;;30.63;14.10;;;3.20;98.50;;;;;;5029902;28;20225;-73
2020/12/02 00:28:45;;;;;;;31.73;14.02;;;3.20;98.50;;;;;;5030939;28;20262;-75
2020/12/02 00:31:12;;;;;;;26.90;12.80;;;3.10;98.50;;;;;;5025381;28;20653;-75
2020/12/02 00:33:38;;;;;;;27.00;13.35;;;3.10;98.60;;;;;;5022027;28;20220;-74
2020/12/02 00:36:04;;;;;;;35.55;13.63;;;3.10;98.70;;;;;;5029438;28;20551;-74
2020/12/02 00:38:30;;;;;;;30.30;13.63;;;2.90;98.30;;;;;;5029680;28;20201;-73
2020/12/02 00:40:56;;;;;;;42.72;16.27;;;2.70;98.70;;;;;;5031240;28;20506;-75
2020/12/02 00:43:25;;;;;;;30.05;13.10;;;2.60;99.00;;;;;;5030362;28;20267;-74
2020/12/02 00:46:03;;;;;;;33.13;13.70;;;2.50;99.40;;;;;;5031035;28;20243;-76
2020/12/02 00:48:31;;;;;;;31.15;13.70;;;2.60;99.80;;;;;;5030756;28;20274;-74
2020/12/02 00:50:57;;;;;;;32.47;13.35;;;2.70;99.90;;;;;;5029642;28;20231;-74
2020/12/02 00:53:26;;;;;;;33.90;15.40;;;2.70;99.90;;;;;;5029503;28;20201;-77
2020/12/02 00:55:53;;;;;;;34.55;14.90;;;2.70;99.90;;;;;;5030611;28;20590;-74
2020/12/02 00:58:22;;;;;;;36.40;15.57;;;2.70;99.90;;;;;;5030513;28;20243;-73
2020/12/02 01:00:48;;;;;;;35.95;14.75;;;2.60;99.90;;;;;;5036112;28;20835;-74
2020/12/02 01:03:27;;;;;;;31.75;14.90;;;2.60;99.90;;;;;;5030917;28;20189;-73
2020/12/02 01:05:55;;;;;;;37.80;15.65;;;2.70;99.90;;;;;;5030861;28;20189;-74
2020/12/02 01:08:36;;;;;;;41.05;17.23;;;2.80;99.90;;;;;;5030468;28;20178;-75
2020/12/02 01:11:23;;;;;;;36.35;15.07;;;2.70;99.90;;;;;;5030830;28;20177;-74
2020/12/02 01:14:04;;;;;;;40.25;16.27;;;2.60;99.90;;;;;;5011221;28;20181;-74
2020/12/02 01:16:40;;;;;;;36.08;16.73;;;2.60;99.90;;;;;;5015036;28;20193;-74
2020/12/02 01:19:12;;;;;;;36.42;16.45;;;2.60;99.90;;;;;;5016618;28;20214;-74
2020/12/02 01:21:52;;;;;;;45.10;16.80;;;2.60;99.90;;;;;;5017806;28;20319;-75
2020/12/02 01:24:33;;;;;;;35.42;16.30;;;2.70;99.90;;;;;;5028975;28;20216;-72
2020/12/02 01:27:21;;;;;;;34.80;16.02;;;2.70;99.90;;;;;;5031832;28;20181;-71
2020/12/02 01:29:47;;;;;;;39.13;16.67;;;2.70;99.90;;;;;;5024525;28;20197;-75
2020/12/02 01:32:14;;;;;;;36.00;16.10;;;2.60;99.90;;;;;;5023929;28;20293;-72
2020/12/02 01:34:45;;;;;;;34.90;17.17;;;2.70;99.90;;;;;;5037413;28;20249;-76
2020/12/02 01:37:32;;;;;;;40.33;17.63;;;2.70;99.90;;;;;;5044315;28;20187;-72
2020/12/02 01:40:06;;;;;;;34.00;16.27;;;2.70;99.90;;;;;;5056318;28;20627;-74
2020/12/02 01:42:32;;;;;;;31.58;15.10;;;2.70;99.80;;;;;;5033831;28;20201;-76
2020/12/02 01:44:59;;;;;;;36.38;16.45;;;2.70;99.80;;;;;;5033600;28;20296;-73
2020/12/02 01:48:06;;;;;;;30.75;14.85;;;2.70;99.70;;;;;;5033991;28;20212;-73
2020/12/02 01:50:52;;;;;;;32.30;15.18;;;2.80;99.70;;;;;;5034010;28;20216;-74
2020/12/02 01:53:31;;;;;;;35.22;16.20;;;2.80;99.70;;;;;;5033788;28;20913;-73
2020/12/02 01:56:10;;;;;;;32.60;15.35;;;2.80;99.50;;;;;;5020849;28;20272;-75
2020/12/02 01:58:48;;;;;;;35.65;14.93;;;2.80;99.50;;;;;;5019150;28;20208;-75
2020/12/02 02:01:23;;;;;;;30.83;16.05;;;2.80;99.40;;;;;;5021791;28;20182;-75
2020/12/02 02:03:50;;;;;;;32.35;14.68;;;2.80;99.40;;;;;;5020251;28;20242;-75
2020/12/02 02:06:25;;;;;;;30.63;13.85;;;2.80;99.50;;;;;;5033250;28;20212;-74
2020/12/02 02:08:50;;;;;;;32.63;14.07;;;2.80;99.40;;;;;;5033836;28;20189;-74
2020/12/02 02:11:21;;;;;;;33.67;14.93;;;2.80;99.20;;;;;;5033787;28;20224;-73
2020/12/02 02:13:57;;;;;;;35.22;15.43;;;2.70;99.20;;;;;;5033625;28;20161;-73
2020/12/02 02:16:27;;;;;;;40.03;15.90;;;2.70;99.30;;;;;;5033171;28;20660;-76
2020/12/02 02:18:53;;;;;;;26.88;13.90;;;2.70;99.40;;;;;;5032023;28;20263;-73
2020/12/02 02:21:25;;;;;;;28.90;14.00;;;2.70;99.40;;;;;;5033308;28;20795;-75
2020/12/02 02:23:51;;;;;;;37.67;15.43;;;2.70;99.50;;;;;;5033004;28;20221;-73
2020/12/02 02:26:26;;;;;;;32.20;14.13;;;2.60;99.40;;;;;;5018400;28;20735;-75
2020/12/02 02:28:55;;;;;;;26.17;13.15;;;2.60;99.30;;;;;;5031712;28;20291;-75
2020/12/02 02:31:24;;;;;;;38.22;14.55;;;2.50;99.50;;;;;;5037219;28;20176;-75
2020/12/02 02:33:51;;;;;;;31.17;14.70;;;2.60;99.70;;;;;;5031980;28;20273;-75
2020/12/02 02:36:21;;;;;;;38.60;15.27;;;2.70;99.70;;;;;;5032933;28;20592;-76
2020/12/02 02:38:47;;;;;;;29.27;14.73;;;2.80;99.60;;;;;;5032999;28;20228;-75
2020/12/02 02:41:13;;;;;;;30.00;15.00;;;2.80;99.50;;;;;;5033127;28;20660;-75
2020/12/02 02:43:40;;;;;;;27.23;13.33;;;2.80;99.40;;;;;;5031855;28;20966;-74
2020/12/02 02:46:07;;;;;;;32.53;13.98;;;2.90;99.30;;;;;;5033118;28;20421;-74
2020/12/02 02:48:33;;;;;;;33.65;15.48;;;2.90;99.20;;;;;;5042211;28;20205;-74
2020/12/02 02:50:59;;;;;;;33.42;14.30;;;2.90;99.10;;;;;;5040617;28;20204;-78
2020/12/02 02:53:26;;;;;;;35.63;14.35;;;2.90;99.10;;;;;;5034534;28;20181;-75
2020/12/02 02:55:53;;;;;;;29.67;14.40;;;2.90;99.00;;;;;;5031985;28;20188;-75
2020/12/02 02:58:19;;;;;;;32.83;15.75;;;2.80;98.90;;;;;;5034312;28;20195;-75
2020/12/02 03:00:45;;;;;;;31.77;15.23;;;2.80;99.10;;;;;;5033998;28;20715;-75
2020/12/02 03:03:13;;;;;;;34.80;14.20;;;2.70;99.20;;;;;;5043078;28;20423;-77
2020/12/02 03:05:39;;;;;;;32.35;14.25;;;2.60;99.50;;;;;;5032921;28;20209;-74
2020/12/02 03:08:09;;;;;;;39.70;15.47;;;2.70;99.70;;;;;;5030794;28;20247;-74
2020/12/02 03:10:39;;;;;;;37.70;15.38;;;2.80;99.80;;;;;;5023560;28;20421;-73
2020/12/02 03:13:33;;;;;;;35.72;14.85;;;2.80;99.90;;;;;;5015151;28;20685;-73
2020/12/02 03:16:22;;;;;;;33.47;14.52;;;2.90;99.90;;;;;;5018898;28;20198;-76
2020/12/02 03:18:49;;;;;;;27.08;13.93;;;2.90;99.90;;;;;;5028745;28;20554;-73
2020/12/02 03:21:20;;;;;;;29.60;14.65;;;2.90;99.70;;;;;;5017551;28;20185;-75
2020/12/02 03:23:46;;;;;;;29.10;13.48;;;3.00;99.60;;;;;;5031783;28;20185;-73
2020/12/02 03:26:12;;;;;;;37.53;14.43;;;3.00;99.50;;;;;;5015160;28;20186;-73
2020/12/02 03:28:38;;;;;;;34.45;14.48;;;2.90;99.20;;;;;;5009933;28;20452;-76
2020/12/02 03:31:09;;;;;;;31.63;12.82;;;2.90;99.20;;;;;;5015995;28;20235;-74
2020/12/02 03:33:35;;;;;;;32.10;13.43;;;2.80;99.20;;;;;;5030484;28;20193;-73
2020/12/02 03:36:00;;;;;;;35.67;15.70;;;2.80;99.30;;;;;;5029160;28;20193;-73
2020/12/02 03:38:26;;;;;;;36.23;14.20;;;2.80;99.40;;;;;;5029854;28;20201;-74
2020/12/02 03:40:52;;;;;;;29.83;16.10;;;2.80;99.50;;;;;;5031708;28;20189;-74
2020/12/02 03:43:18;;;;;;;35.00;14.40;;;2.90;99.60;;;;;;5030486;28;20467;-75
2020/12/02 03:45:45;;;;;;;29.93;14.17;;;2.80;99.50;;;;;;5030087;28;20343;-75
2020/12/02 03:48:15;;;;;;;30.08;14.80;;;2.80;99.50;;;;;;5030872;28;20447;-76
2020/12/02 03:50:42;;;;;;;24.38;14.02;;;2.80;99.50;;;;;;5031232;28;20310;-74
2020/12/02 03:53:09;;;;;;;30.98;14.00;;;2.90;99.50;;;;;;5031049;28;20678;-76
2020/12/02 03:55:35;;;;;;;34.05;14.82;;;2.90;99.60;;;;;;5030567;28;20660;-75
2020/12/02 03:58:01;;;;;;;35.20;15.13;;;3.00;99.60;;;;;;5031763;28;20200;-75
2020/12/02 04:00:27;;;;;;;34.20;14.88;;;3.00;99.60;;;;;;5032678;28;20460;-75
2020/12/02 04:02:53;;;;;;;30.13;13.97;;;2.90;99.40;;;;;;5031927;28;20228;-75
2020/12/02 04:05:19;;;;;;;30.40;14.23;;;2.90;99.40;;;;;;5030298;28;20680;-75
2020/12/02 04:07:45;;;;;;;30.10;14.52;;;3.00;99.40;;;;;;5031080;28;20416;-75
2020/12/02 04:10:11;;;;;;;30.50;15.10;;;3.00;99.40;;;;;;5029896;28;20211;-75
2020/12/02 04:12:37;;;;;;;27.73;14.25;;;3.00;99.30;;;;;;5031720;28;20455;-77
2020/12/02 04:15:05;;;;;;;29.80;14.10;;;2.90;99.10;;;;;;5030622;28;20233;-76
2020/12/02 04:17:31;;;;;;;37.50;14.95;;;2.90;99.20;;;;;;5038435;28;20181;-76
2020/12/02 04:19:56;;;;;;;27.73;15.00;;;3.00;99.40;;;;;;5032510;28;20695;-77
2020/12/02 04:22:22;;;;;;;26.77;13.13;;;3.00;99.30;;;;;;5018931;28;20432;-75
2020/12/02 04:24:48;;;;;;;33.42;14.55;;;3.00;99.20;;;;;;5029984;28;20290;-75
2020/12/02 04:27:15;;;;;;;31.93;13.50;;;3.00;99.00;;;;;;5030961;28;20517;-76
2020/12/02 04:29:41;;;;;;;37.05;15.88;;;3.00;99.00;;;;;;5030979;28;20284;-78
2020/12/02 04:32:07;;;;;;;35.88;16.27;;;3.00;99.00;;;;;;5031627;28;20177;-76
2020/12/02 04:34:33;;;;;;;34.90;14.77;;;2.90;98.70;;;;;;5038130;28;20219;-77
2020/12/02 04:36:59;;;;;;;30.60;14.17;;;2.90;98.80;;;;;;5041068;28;20189;-74
2020/12/02 04:39:25;;;;;;;30.40;14.20;;;3.00;98.90;;;;;;5040634;28;20553;-76
2020/12/02 04:41:52;;;;;;;28.98;14.57;;;2.90;98.80;;;;;;5043775;28;20785;-75
2020/12/02 04:44:18;;;;;;;29.42;14.02;;;2.90;98.90;;;;;;5040662;28;20211;-75
2020/12/02 04:46:44;;;;;;;34.85;15.10;;;2.80;98.80;;;;;;5030847;28;20187;-75
2020/12/02 04:49:13;;;;;;;34.47;14.75;;;2.80;98.80;;;;;;5030575;28;20292;-77
2020/12/02 04:51:39;;;;;;;32.17;14.35;;;2.80;98.90;;;;;;5028955;28;20281;-76
2020/12/02 04:54:05;;;;;;;31.67;14.85;;;2.80;99.00;;;;;;5029746;28;20640;-77
2020/12/02 04:56:32;;;;;;;28.95;13.43;;;2.80;99.00;;;;;;5030094;28;20194;-75
2020/12/02 04:58:58;;;;;;;29.88;13.55;;;2.90;99.00;;;;;;5024467;28;20296;-77
2020/12/02 05:01:33;;;;;;;33.40;14.70;;;3.00;99.00;;;;;;5021778;28;20745;-77
2020/12/02 05:04:05;;;;;;;34.25;15.02;;;3.00;98.90;;;;;;5028357;28;20517;-76
2020/12/02 05:06:34;;;;;;;26.83;12.75;;;3.00;98.70;;;;;;5016775;28;20214;-76
2020/12/02 05:09:21;;;;;;;29.70;14.27;;;3.00;98.40;;;;;;5029855;28;20629;-77
2020/12/02 05:12:05;;;;;;;27.30;12.50;;;3.00;98.40;;;;;;5030996;28;20188;-77
2020/12/02 05:14:42;;;;;;;28.38;12.20;;;3.00;98.10;;;;;;5033807;28;20180;-77
2020/12/02 05:17:22;;;;;;;23.27;11.27;;;3.10;98.00;;;;;;5038061;28;20760;-76
2020/12/02 05:20:05;;;;;;;27.00;12.57;;;3.10;98.00;;;;;;5036200;28;20204;-76
2020/12/02 05:22:36;;;;;;;28.60;12.65;;;3.10;97.80;;;;;;5034078;28;20196;-75
2020/12/02 05:25:02;;;;;;;29.52;13.48;;;3.10;97.70;;;;;;5024212;28;20213;-75
2020/12/02 05:27:33;;;;;;;28.30;13.00;;;3.10;97.70;;;;;;5029974;28;20212;-78
2020/12/02 05:30:21;;;;;;;29.25;13.05;;;3.20;97.60;;;;;;5037018;28;20200;-77
2020/12/02 05:33:12;;;;;;;27.80;12.93;;;3.20;97.30;;;;;;5037526;28;20250;-75
2020/12/02 05:35:43;;;;;;;23.60;11.27;;;3.20;97.00;;;;;;5032672;28;20323;-75
2020/12/02 05:38:13;;;;;;;34.30;14.13;;;3.20;96.90;;;;;;5054076;28;20280;-76
2020/12/02 05:40:39;;;;;;;25.30;10.77;;;3.20;96.90;;;;;;5034974;28;20185;-76
2020/12/02 05:43:19;;;;;;;31.20;13.23;;;3.30;96.70;;;;;;5032256;28;20591;-77
2020/12/02 05:45:48;;;;;;;27.67;12.45;;;3.20;96.60;;;;;;5032776;28;20216;-76
2020/12/02 05:48:18;;;;;;;28.02;12.93;;;3.20;96.50;;;;;;5023801;28;20186;-76
2020/12/02 05:50:45;;;;;;;28.58;12.93;;;3.20;96.80;;;;;;5031816;28;20600;-76
2020/12/02 05:53:17;;;;;;;27.63;12.32;;;3.10;96.70;;;;;;5029340;28;20207;-75
2020/12/02 05:55:44;;;;;;;30.80;14.43;;;3.10;96.90;;;;;;5020756;28;20273;-75
2020/12/02 05:58:18;;;;;;;30.45;13.57;;;3.00;96.80;;;;;;5056505;28;20684;-75
2020/12/02 06:00:43;;;;;;;26.38;11.35;;;3.00;96.90;;;;;;5015069;28;20579;-75
2020/12/02 06:03:19;;;;;;;31.30;13.50;;;3.00;97.00;;;;;;5026397;28;20271;-76
2020/12/02 06:05:45;;;;;;;25.48;10.95;;;3.00;97.00;;;;;;5019642;28;20524;-76
2020/12/02 06:08:38;;;;;;;26.30;11.70;;;3.00;96.90;;;;;;5029586;28;20239;-76
2020/12/02 06:11:16;;;;;;;22.42;10.88;;;3.00;96.90;;;;;;5032845;28;20255;-77
2020/12/02 06:13:42;;;;;;;27.58;12.02;;;3.00;97.00;;;;;;5032955;28;20181;-77
2020/12/02 06:16:16;;;;;;;26.23;12.63;;;3.00;97.20;;;;;;5031858;28;20192;-74
2020/12/02 06:18:42;;;;;;;28.25;12.85;;;3.00;97.10;;;;;;5031757;28;20311;-75
2020/12/02 06:21:38;;;;;;;35.47;12.48;;;3.10;97.10;;;;;;5018863;28;20216;-75
2020/12/02 06:24:03;;;;;;;25.77;11.73;;;3.10;97.20;;;;;;5016917;28;20658;-75
2020/12/02 06:26:47;;;;;;;27.77;11.90;;;3.10;97.00;;;;;;5025394;28;20212;-75
2020/12/02 06:29:35;;;;;;;25.25;10.73;;;3.10;96.90;;;;;;5025375;28;20208;-75
2020/12/02 06:32:17;;;;;;;27.02;11.63;;;3.10;97.00;;;;;;5011529;28;20201;-76
2020/12/02 06:34:43;;;;;;;32.10;13.13;;;3.00;97.00;;;;;;5030070;28;20609;-74
2020/12/02 06:37:27;;;;;;;26.23;12.07;;;3.00;97.10;;;;;;5030726;28;20189;-74
2020/12/02 06:39:59;;;;;;;30.90;13.38;;;3.00;97.10;;;;;;5031103;28;20257;-73
2020/12/02 06:42:39;;;;;;;28.85;13.20;;;3.10;97.20;;;;;;5033974;28;20216;-76
2020/12/02 06:45:17;;;;;;;30.13;12.73;;;3.10;97.30;;;;;;5035146;28;20590;-72
2020/12/02 06:47:48;;;;;;;23.98;11.45;;;3.20;97.20;;;;;;5021616;28;20641;-74
2020/12/02 06:50:17;;;;;;;31.88;13.57;;;3.20;97.00;;;;;;5038092;28;20212;-75
2020/12/02 06:52:43;;;;;;;26.80;12.40;;;3.20;96.90;;;;;;5044965;28;20480;-75
2020/12/02 06:55:28;;;;;;;26.77;12.57;;;3.20;96.90;;;;;;5041134;28;20211;-73
2020/12/02 06:57:57;;;;;;;31.58;14.05;;;3.30;97.00;;;;;;5019463;28;20204;-75
2020/12/02 07:00:29;;;;;;;31.30;12.55;;;3.30;97.00;;;;;;5034885;28;20205;-73
2020/12/02 07:03:01;;;;;;;30.43;13.17;;;3.30;96.80;;;;;;5029916;28;20717;-76
2020/12/02 07:05:35;;;;;;;25.55;11.50;;;3.40;96.60;;;;;;5018540;28;20475;-74
2020/12/02 07:08:25;;;;;;;33.00;11.73;;;3.40;96.50;;;;;;5017681;28;20181;-74
2020/12/02 07:10:59;;;;;;;30.03;11.90;;;3.40;96.40;;;;;;5018540;28;20241;-74
2020/12/02 07:13:27;;;;;;;26.70;12.30;;;3.50;96.20;;;;;;5024355;28;20428;-76
2020/12/02 07:15:53;;;;;;;27.40;12.02;;;3.40;96.00;;;;;;5022973;28;20518;-75
2020/12/02 07:18:22;;;;;;;27.13;12.13;;;3.40;95.20;;;;;;5025508;28;20821;-76
2020/12/02 07:20:55;;;;;;;31.10;12.30;;;3.30;95.10;;;;;;5029924;28;20511;-75
2020/12/02 07:23:21;;;;;;;31.20;11.87;;;3.30;95.30;;;;;;5030928;28;20185;-76
2020/12/02 07:25:48;;;;;;;33.50;11.48;;;3.30;95.50;;;;;;5028720;28;20472;-74
2020/12/02 07:28:18;;;;;;;31.15;12.70;;;3.40;95.30;;;;;;5020087;28;20191;-77
2020/12/02 07:30:46;;;;;;;28.75;12.43;;;3.40;95.20;;;;;;5030880;28;20548;-74
2020/12/02 07:33:17;;;;;;;25.88;11.63;;;3.30;95.00;;;;;;5030957;28;20260;-75
2020/12/02 07:35:44;;;;;;;29.52;12.75;;;3.40;95.10;;;;;;5028970;28;20627;-75
2020/12/02 07:38:13;;;;;;;28.67;12.20;;;3.40;95.10;;;;;;5022671;28;20217;-75
2020/12/02 07:40:40;;;;;;;27.48;12.13;;;3.40;95.00;;;;;;5023226;28;20196;-74
2020/12/02 07:43:26;;;;;;;25.77;11.38;;;3.30;94.90;;;;;;5022047;28;20197;-75
2020/12/02 07:45:57;;;;;;;31.92;12.50;;;3.30;95.00;;;;;;5030045;28;20312;-76
2020/12/02 07:48:26;;;;;;;30.85;13.02;;;3.30;95.00;;;;;;5030571;28;20193;-76
2020/12/02 07:51:05;;;;;;;28.05;13.52;;;3.30;95.30;;;;;;5029709;28;20185;-76
2020/12/02 07:53:40;;;;;;;35.33;11.65;;;3.30;95.30;;;;;;5031548;28;20200;-74
2020/12/02 07:56:13;;;;;;;32.00;12.60;;;3.30;95.30;;;;;;5031335;28;20196;-76
2020/12/02 07:58:40;;;;;;;27.33;11.20;;;3.40;94.90;;;;;;5030629;28;20267;-74
2020/12/02 08:01:24;;;;;;;27.90;11.70;;;3.50;94.70;;;;;;5030045;28;20189;-76
2020/12/02 08:03:51;;;;;;;27.75;12.13;;;3.50;94.40;;;;;;5016176;28;20666;-73
2020/12/02 08:06:41;;;;;;;33.22;14.32;;;3.50;94.30;;;;;;5029929;28;20643;-76
2020/12/02 08:09:06;;;;;;;31.33;12.95;;;3.50;94.30;;;;;;5029760;28;20223;-73
2020/12/02 08:11:32;;;;;;;30.03;13.57;;;3.60;93.90;;;;;;5029766;28;20663;-77
2020/12/02 08:13:58;;;;;;;33.13;11.90;;;3.60;93.60;;;;;;5029195;28;20185;-75
2020/12/02 08:16:30;;;;;;;34.70;13.37;;;3.60;93.40;;;;;;5016192;28;20705;-76
2020/12/02 08:18:57;;;;;;;35.53;12.93;;;3.60;93.40;;;;;;5029688;28;20444;-76
2020/12/02 08:21:27;;;;;;;31.98;13.82;;;3.60;93.60;;;;;;5028271;28;20188;-74
2020/12/02 08:24:30;;;;;;;28.60;12.50;;;3.70;93.70;;;;;;5028970;28;20247;-76
2020/12/02 08:26:56;;;;;;;32.30;12.55;;;3.70;93.60;;;;;;5014626;28;20201;-75
2020/12/02 08:29:24;;;;;;;28.90;12.57;;;3.70;93.70;;;;;;5028719;28;20209;-74
2020/12/02 08:32:20;;;;;;;26.60;13.10;;;3.70;93.50;;;;;;5016598;28;20615;-76
2020/12/02 08:34:45;;;;;;;29.90;11.15;;;3.70;93.20;;;;;;5014043;28;20201;-75
2020/12/02 08:37:15;;;;;;;30.30;12.07;;;3.70;93.00;;;;;;5029421;28;20286;-74
2020/12/02 08:39:44;;;;;;;34.40;13.00;;;3.50;92.90;;;;;;5028306;28;20212;-76
2020/12/02 08:42:23;;;;;;;26.90;10.98;;;3.50;93.00;;;;;;5027902;28;20948;-75
2020/12/02 08:45:14;;;;;;;29.00;10.93;;;3.50;93.50;;;;;;5008537;28;20214;-76
2020/12/02 08:47:40;;;;;;;29.40;12.93;;;3.50;93.40;;;;;;5014498;28;20188;-75
2020/12/02 08:50:25;;;;;;;27.70;12.73;;;3.50;93.40;;;;;;5028983;28;20262;-74
2020/12/02 08:52:53;;;;;;;29.52;12.32;;;3.50;93.30;;;;;;5017930;28;20506;-74
2020/12/02 08:55:19;;;;;;;26.25;11.98;;;3.40;93.20;;;;;;5025371;28;20181;-74
2020/12/02 08:57:45;;;;;;;24.30;10.55;;;3.40;93.40;;;;;;5027602;28;20624;-76
2020/12/02 09:00:20;;;;;;;29.40;13.03;;;3.40;93.30;;;;;;5015671;28;20208;-75
2020/12/02 09:02:47;;;;;;;33.35;12.73;;;3.50;93.30;;;;;;5027463;28;20779;-76
2020/12/02 09:05:12;;;;;;;32.60;12.75;;;3.40;93.00;;;;;;5027893;28;20363;-75
2020/12/02 09:07:38;;;;;;;27.93;11.33;;;3.40;93.20;;;;;;5029175;28;20185;-75
2020/12/02 09:10:05;;;;;;;32.07;12.67;;;3.40;93.30;;;;;;5029037;28;20197;-76
2020/12/02 09:12:31;;;;;;;27.17;11.70;;;3.40;93.30;;;;;;5027555;28;20177;-74
2020/12/02 09:14:56;;;;;;;32.33;12.80;;;3.40;93.20;;;;;;5015295;28;20330;-74
2020/12/02 09:17:22;;;;;;;31.83;13.00;;;3.30;93.00;;;;;;5029206;28;20435;-75
2020/12/02 09:19:50;;;;;;;31.02;11.95;;;3.30;93.20;;;;;;5015678;28;20212;-76
2020/12/02 09:22:16;;;;;;;27.45;12.48;;;3.40;93.00;;;;;;5027805;28;20220;-76
2020/12/02 09:24:43;;;;;;;26.15;12.38;;;3.40;92.70;;;;;;5027363;28;20209;-75
2020/12/02 09:27:10;;;;;;;28.58;11.82;;;3.50;92.70;;;;;;5027532;28;20196;-75
2020/12/02 09:29:36;;;;;;;33.42;12.18;;;3.50;92.50;;;;;;5028580;28;20201;-74
2020/12/02 09:32:01;;;;;;;31.07;12.90;;;3.40;92.20;;;;;;5028972;28;20208;-76
2020/12/02 09:34:27;;;;;;;32.53;12.23;;;3.40;91.70;;;;;;5026167;28;20814;-75
2020/12/02 09:36:53;;;;;;;28.07;10.40;;;3.30;91.50;;;;;;5028814;28;20555;-75
2020/12/02 09:39:19;;;;;;;26.63;10.70;;;3.40;91.70;;;;;;5028733;28;20216;-77
2020/12/02 09:41:51;;;;;;;26.58;10.57;;;3.30;91.50;;;;;;5028901;28;20662;-74
2020/12/02 09:44:54;;;;;;;23.52;10.45;;;3.30;91.50;;;;;;5027887;28;20558;-75
2020/12/02 09:47:20;;;;;;;22.88;9.60;;;3.40;91.30;;;;;;5027347;28;20266;-74
2020/12/02 09:49:47;;;;;;;24.07;9.63;;;3.40;91.10;;;;;;5028589;28;20732;-74
2020/12/02 09:52:12;;;;;;;24.65;10.20;;;3.30;90.60;;;;;;5027025;28;20436;-75
2020/12/02 09:54:41;;;;;;;25.83;10.10;;;3.40;91.10;;;;;;5027871;28;20215;-75
2020/12/02 09:57:26;;;;;;;21.38;8.80;;;3.40;91.10;;;;;;5027404;28;20190;-74
2020/12/02 09:59:58;;;;;;;30.02;11.82;;;3.40;90.80;;;;;;5030960;28;20221;-77
2020/12/02 10:02:38;;;;;;;21.65;9.75;;;3.40;90.80;;;;;;5032664;28;20268;-75
2020/12/02 10:05:23;;;;;;;26.58;10.13;;;3.50;90.80;;;;;;5032713;28;20260;-77
2020/12/02 10:08:12;;;;;;;23.05;10.75;;;3.50;89.90;;;;;;5037594;28;20550;-74
2020/12/02 10:10:47;;;;;;;28.08;11.45;;;3.50;89.90;;;;;;5031239;28;20667;-76
2020/12/02 10:13:51;;;;;;;21.38;9.80;;;3.50;90.30;;;;;;5032209;28;20195;-74
2020/12/02 10:16:32;;;;;;;23.15;10.10;;;3.60;89.90;;;;;;5009220;28;20246;-75
2020/12/02 10:19:16;;;;;;;25.98;10.20;;;3.60;89.60;;;;;;5032175;28;20201;-75
2020/12/02 10:22:00;;;;;;;29.25;11.50;;;3.60;89.70;;;;;;5032072;28;20185;-75
2020/12/02 10:24:28;;;;;;;28.65;11.50;;;3.70;89.60;;;;;;5028156;28;20235;-75
2020/12/02 10:27:17;;;;;;;23.73;10.45;;;3.70;89.30;;;;;;5023384;28;20220;-74
2020/12/02 10:30:11;;;;;;;25.88;10.60;;;3.60;89.70;;;;;;5025526;28;20209;-75
2020/12/02 10:32:58;;;;;;;31.55;13.30;;;3.60;90.30;;;;;;5027980;28;20235;-75
2020/12/02 10:35:27;;;;;;;34.00;12.20;;;3.60;90.00;;;;;;5032572;28;20185;-76
2020/12/02 10:37:59;;;;;;;37.13;12.85;;;3.50;90.10;;;;;;5032406;28;20204;-74
2020/12/02 10:40:34;;;;;;;34.47;13.68;;;3.40;90.60;;;;;;5032533;28;20567;-74
2020/12/02 10:43:26;;;;;;;30.38;12.95;;;3.30;90.80;;;;;;5032289;28;20274;-75
2020/12/02 10:45:56;;;;;;;36.65;12.60;;;3.30;91.00;;;;;;5032669;28;20212;-75
2020/12/02 10:48:40;;;;;;;38.42;14.65;;;3.40;91.30;;;;;;5032425;28;20189;-76
2020/12/02 10:51:11;;;;;;;41.15;15.10;;;3.50;91.30;;;;;;5024059;28;20265;-74
2020/12/02 10:53:37;;;;;;;34.83;14.57;;;3.50;90.70;;;;;;5029681;28;21069;-77
2020/12/02 10:56:03;;;;;;;43.40;16.13;;;3.50;90.40;;;;;;5035362;28;20213;-75
2020/12/02 10:58:29;;;;;;;37.80;13.87;;;3.50;90.60;;;;;;5036000;28;20271;-75
2020/12/02 11:00:57;;;;;;;34.78;13.10;;;3.60;90.40;;;;;;5036955;28;20216;-77
2020/12/02 11:03:38;;;;;;;39.35;14.80;;;3.50;90.10;;;;;;5036382;28;20181;-75
2020/12/02 11:06:12;;;;;;;40.97;15.10;;;3.50;90.40;;;;;;5038214;28;20205;-76
2020/12/02 11:08:38;;;;;;;39.25;15.07;;;3.50;90.40;;;;;;5022167;28;20283;-75
2020/12/02 11:11:18;;;;;;;37.93;14.40;;;3.40;90.70;;;;;;5030705;28;20235;-75
2020/12/02 11:14:22;;;;;;;36.55;14.15;;;3.50;90.70;;;;;;5012214;28;20221;-75
2020/12/02 11:17:02;;;;;;;35.85;15.80;;;3.50;90.80;;;;;;5020134;28;20215;-76
2020/12/02 11:20:03;;;;;;;33.60;13.63;;;3.60;90.60;;;;;;5028181;28;20612;-76
2020/12/02 11:22:31;;;;;;;30.45;13.15;;;3.60;90.30;;;;;;5027335;28;20671;-76
2020/12/02 11:25:11;;;;;;;30.42;12.95;;;3.60;89.90;;;;;;5031720;28;20267;-76
2020/12/02 11:27:36;;;;;;;32.08;12.52;;;3.50;89.30;;;;;;5034232;28;20193;-76
2020/12/02 11:30:07;;;;;;;37.40;13.23;;;3.60;89.30;;;;;;5032285;28;20197;-76
2020/12/02 11:33:04;;;;;;;32.28;13.35;;;3.60;89.60;;;;;;5031474;28;20196;-76
2020/12/02 11:35:41;;;;;;;37.58;14.30;;;3.60;88.90;;;;;;5031649;28;20704;-76
2020/12/02 11:38:27;;;;;;;30.27;11.43;;;3.50;88.90;;;;;;5036290;28;20189;-75
2020/12/02 11:41:02;;;;;;;27.63;11.15;;;3.40;89.50;;;;;;5018694;28;20644;-76
2020/12/02 11:43:36;;;;;;;36.03;13.52;;;3.40;89.30;;;;;;5051475;28;20229;-76
2020/12/02 11:46:02;;;;;;;31.77;12.30;;;3.30;89.20;;;;;;5012574;28;20186;-75
2020/12/02 11:48:59;;;;;;;38.25;14.68;;;3.30;89.90;;;;;;5025220;28;20197;-75
2020/12/02 11:51:40;;;;;;;37.60;13.60;;;3.40;90.10;;;;;;5032420;28;20285;-75
2020/12/02 11:54:10;;;;;;;37.17;14.40;;;3.40;90.60;;;;;;5029819;28;20216;-76
2020/12/02 11:56:43;;;;;;;33.22;14.07;;;3.30;90.40;;;;;;5018553;28;20689;-76
2020/12/02 11:59:14;;;;;;;31.63;13.05;;;3.30;90.60;;;;;;5032129;28;20216;-75
2020/12/02 12:02:19;;;;;;;36.40;13.93;;;3.20;90.90;;;;;;5031723;28;20196;-75
2020/12/02 12:05:03;;;;;;;34.28;13.35;;;3.20;90.60;;;;;;5029805;28;20219;-74
2020/12/02 12:07:55;;;;;;;36.33;14.45;;;3.20;90.50;;;;;;5030111;28;20189;-74
2020/12/02 12:10:37;;;;;;;34.13;12.77;;;3.10;90.50;;;;;;5027738;28;20224;-75
2020/12/02 12:13:17;;;;;;;30.85;12.43;;;3.10;90.10;;;;;;5031009;28;20181;-74
2020/12/02 12:15:48;;;;;;;30.63;12.05;;;3.10;90.00;;;;;;5030821;28;20200;-76
2020/12/02 12:18:14;;;;;;;36.97;14.05;;;3.20;89.70;;;;;;5023453;28;20193;-77
2020/12/02 12:20:44;;;;;;;30.53;11.97;;;3.20;89.70;;;;;;5011816;28;20198;-76
2020/12/02 12:23:51;;;;;;;35.15;13.38;;;3.20;89.70;;;;;;5018231;28;20180;-77
2020/12/02 12:26:16;;;;;;;39.33;14.50;;;3.20;89.90;;;;;;5007840;28;20225;-75
2020/12/02 12:28:42;;;;;;;34.27;13.30;;;3.10;90.00;;;;;;5008262;28;20212;-75
2020/12/02 12:31:20;;;;;;;38.57;14.10;;;3.10;90.40;;;;;;4991125;28;20719;-75
2020/12/02 12:33:53;;;;;;;39.03;14.68;;;3.10;90.60;;;;;;5008657;28;20228;-77
2020/12/02 12:36:21;;;;;;;35.15;14.13;;;3.10;90.40;;;;;;5008093;28;20567;-76
2020/12/02 12:38:58;;;;;;;48.45;15.32;;;3.20;90.60;;;;;;5008054;28;20233;-76
2020/12/02 12:41:36;;;;;;;45.47;15.50;;;3.30;90.90;;;;;;5008196;28;20189;-75
2020/12/02 12:44:11;;;;;;;35.85;13.15;;;3.30;90.60;;;;;;5020668;28;20256;-75
2020/12/02 12:47:07;;;;;;;30.55;12.13;;;3.30;89.70;;;;;;5008114;28;20185;-74
2020/12/02 12:49:33;;;;;;;37.38;13.88;;;3.20;89.70;;;;;;5009112;28;20339;-76
2020/12/02 12:52:02;;;;;;;39.53;15.67;;;3.20;90.20;;;;;;5005259;28;20779;-75
2020/12/02 12:54:28;;;;;;;35.42;13.45;;;3.20;90.60;;;;;;5007493;28;20197;-75
2020/12/02 12:56:56;;;;;;;39.50;13.53;;;3.20;90.60;;;;;;5002732;28;20189;-76
2020/12/02 12:59:24;;;;;;;37.25;12.98;;;3.20;90.10;;;;;;5010425;28;20206;-76
2020/12/02 13:01:55;;;;;;;39.92;13.00;;;3.20;90.10;;;;;;5028563;28;20192;-74
2020/12/02 13:04:23;;;;;;;42.17;14.68;;;3.10;90.40;;;;;;5031797;28;20213;-76
2020/12/02 13:07:04;;;;;;;42.97;15.93;;;2.90;90.60;;;;;;5029724;28;20177;-76